Time;durP1;ratioP1;P1;durP2;ratioP2;P2;SDS_P1;SDS_P2;PMS_P1;PMS_P2;Temp;Humidity;BMP_temperature;BMP_pressure;BME280_temperature;BME280_humidity;BME280_pressure;Samples;Min_cycle;Max_cycle;Signal;HPM_P1;HPM_P2
2024/04/06 00:02:04;;;;;;;0.60;0.50;;;18.80;1.00;;;;;;2612682;47;20447;-73
2024/04/06 00:04:33;;;;;;;0.70;0.50;;;18.80;1.00;;;;;;2613039;54;20415;-73
2024/04/06 00:06:59;;;;;;;0.63;0.50;;;18.80;1.00;;;;;;2612537;54;20175;-58
2024/04/06 00:09:25;;;;;;;0.67;0.57;;;18.80;1.00;;;;;;2612414;54;20439;-59
2024/04/06 00:11:50;;;;;;;0.70;0.57;;;18.80;1.00;;;;;;2612751;54;20167;-58
2024/04/06 00:14:19;;;;;;;0.70;0.50;;;18.80;1.00;;;;;;2613390;54;20446;-58
2024/04/06 00:16:45;;;;;;;0.70;0.50;;;18.80;1.00;;;;;;2612894;47;20237;-59
2024/04/06 00:19:11;;;;;;;0.70;0.60;;;18.80;1.00;;;;;;2612424;54;21036;-60
2024/04/06 00:21:37;;;;;;;0.60;0.50;;;18.80;1.00;;;;;;2612779;47;20439;-58
2024/04/06 00:24:02;;;;;;;0.63;0.57;;;18.80;1.00;;;;;;2612660;47;20438;-59
2024/04/06 00:26:28;;;;;;;0.60;0.50;;;18.80;1.00;;;;;;2612838;54;20669;-59
2024/04/06 00:28:54;;;;;;;0.70;0.50;;;18.80;1.00;;;;;;2612712;54;20167;-59
2024/04/06 00:31:19;;;;;;;0.70;0.50;;;18.80;1.00;;;;;;2612512;54;20173;-57
2024/04/06 00:33:45;;;;;;;0.90;0.90;;;18.80;1.00;;;;;;2612621;47;20266;-59
2024/04/06 00:36:11;;;;;;;0.70;0.50;;;18.80;1.00;;;;;;2612542;47;20183;-60
2024/04/06 00:38:36;;;;;;;0.60;0.50;;;18.80;1.00;;;;;;2612779;39;20422;-61
2024/04/06 00:41:03;;;;;;;0.60;0.40;;;18.80;1.00;;;;;;2612371;54;20684;-61
2024/04/06 00:43:31;;;;;;;0.60;0.50;;;18.80;1.00;;;;;;2612302;54;20174;-60
2024/04/06 00:45:56;;;;;;;0.70;0.50;;;18.80;1.00;;;;;;2612080;47;20419;-60
2024/04/06 00:48:22;;;;;;;0.60;0.40;;;18.80;1.00;;;;;;2612720;54;20400;-59
2024/04/06 00:50:49;;;;;;;0.60;0.50;;;18.80;1.00;;;;;;2613525;39;20541;-60
2024/04/06 00:53:15;;;;;;;0.70;0.50;;;18.80;1.00;;;;;;2612621;54;20190;-60
2024/04/06 00:55:41;;;;;;;0.60;0.50;;;18.80;1.00;;;;;;2612237;47;20507;-61
2024/04/06 00:58:07;;;;;;;0.60;0.40;;;18.80;1.00;;;;;;2612488;54;20187;-61
2024/04/06 01:00:32;;;;;;;0.60;0.50;;;18.80;1.00;;;;;;2612079;54;20500;-61
2024/04/06 01:02:58;;;;;;;0.70;0.57;;;18.80;1.00;;;;;;2612701;54;20154;-60
2024/04/06 01:05:24;;;;;;;0.70;0.60;;;18.80;1.00;;;;;;2612544;54;20162;-72
2024/04/06 01:07:49;;;;;;;0.67;0.50;;;18.80;1.00;;;;;;2613476;54;20183;-72
2024/04/06 01:10:15;;;;;;;0.60;0.40;;;18.80;1.00;;;;;;2613525;54;20162;-72
2024/04/06 01:12:41;;;;;;;0.70;0.50;;;18.80;1.00;;;;;;2613171;54;20173;-73
2024/04/06 01:15:07;;;;;;;0.60;0.40;;;18.80;1.00;;;;;;2612833;47;20551;-61
2024/04/06 01:17:33;;;;;;;0.60;0.50;;;18.80;1.00;;;;;;2612605;39;20542;-61
2024/04/06 01:19:59;;;;;;;0.60;0.40;;;18.80;1.00;;;;;;2612310;54;20455;-61
2024/04/06 01:22:24;;;;;;;0.70;0.50;;;18.80;1.00;;;;;;2612667;39;20807;-61
2024/04/06 01:24:50;;;;;;;0.60;0.50;;;18.80;1.00;;;;;;2612464;54;20662;-60
2024/04/06 01:27:16;;;;;;;0.60;0.50;;;18.80;1.00;;;;;;2612582;47;20187;-60
2024/04/06 01:29:42;;;;;;;0.70;0.50;;;18.80;1.00;;;;;;2612608;54;20166;-60
2024/04/06 01:32:07;;;;;;;0.60;0.40;;;18.80;1.00;;;;;;2611892;54;20151;-60
2024/04/06 01:34:33;;;;;;;0.70;0.53;;;18.80;1.00;;;;;;2612410;54;20403;-60
2024/04/06 01:36:59;;;;;;;0.60;0.50;;;18.80;1.00;;;;;;2612000;54;20158;-59
2024/04/06 01:39:24;;;;;;;0.70;0.50;;;18.80;1.00;;;;;;2612211;54;20191;-60
2024/04/06 01:41:50;;;;;;;0.70;0.50;;;18.80;1.00;;;;;;2612797;54;20154;-60
2024/04/06 01:44:16;;;;;;;0.60;0.50;;;18.80;1.00;;;;;;2613171;46;20162;-60
2024/04/06 01:46:42;;;;;;;0.60;0.47;;;18.80;1.00;;;;;;2612880;54;20178;-62
2024/04/06 01:49:07;;;;;;;0.70;0.50;;;18.80;1.00;;;;;;2613304;54;20182;-62
2024/04/06 01:51:33;;;;;;;0.60;0.40;;;18.80;1.00;;;;;;2612889;47;20189;-61
2024/04/06 01:53:59;;;;;;;0.60;0.47;;;18.80;1.00;;;;;;2613226;47;20190;-62
2024/04/06 01:56:28;;;;;;;0.63;0.50;;;18.80;1.00;;;;;;2612976;47;20214;-62
2024/04/06 01:58:55;;;;;;;0.60;0.50;;;18.80;1.00;;;;;;2612635;54;20182;-62
2024/04/06 02:01:20;;;;;;;0.60;0.50;;;18.80;1.00;;;;;;2612579;54;20452;-63
2024/04/06 02:03:46;;;;;;;0.60;0.50;;;18.80;1.00;;;;;;2612641;54;20498;-64
2024/04/06 02:06:12;;;;;;;0.70;0.50;;;18.80;1.00;;;;;;2612629;46;20170;-63
2024/04/06 02:08:38;;;;;;;0.60;0.40;;;18.80;1.00;;;;;;2613083;47;20281;-63
2024/04/06 02:11:04;;;;;;;0.70;0.50;;;18.80;1.00;;;;;;2612842;54;20162;-63
2024/04/06 02:13:30;;;;;;;0.70;0.50;;;18.80;1.00;;;;;;2612905;54;20703;-63
2024/04/06 02:15:56;;;;;;;0.70;0.50;;;18.80;1.00;;;;;;2613119;47;20494;-60
2024/04/06 02:18:22;;;;;;;0.60;0.50;;;18.80;1.00;;;;;;2612776;54;20440;-60
2024/04/06 02:20:48;;;;;;;0.60;0.50;;;18.80;1.00;;;;;;2613255;47;20429;-61
2024/04/06 02:23:14;;;;;;;0.70;0.50;;;18.80;1.00;;;;;;2612837;54;20436;-60
2024/04/06 02:25:40;;;;;;;0.70;0.60;;;18.80;1.00;;;;;;2612977;54;20426;-63
2024/04/06 02:28:05;;;;;;;0.60;0.50;;;18.80;1.00;;;;;;2613149;54;21000;-63
2024/04/06 02:30:31;;;;;;;0.70;0.60;;;18.80;1.00;;;;;;2613000;47;20163;-63
2024/04/06 02:32:57;;;;;;;0.60;0.40;;;18.80;1.00;;;;;;2613332;54;20158;-62
2024/04/06 02:35:23;;;;;;;0.67;0.50;;;18.80;1.00;;;;;;2613075;54;20185;-63
2024/04/06 02:37:49;;;;;;;0.70;0.50;;;18.80;1.00;;;;;;2613081;47;20439;-62
2024/04/06 02:40:15;;;;;;;0.70;0.50;;;18.80;1.00;;;;;;2612854;47;20419;-62
2024/04/06 02:42:40;;;;;;;0.70;0.50;;;18.80;1.00;;;;;;2612868;54;20159;-62
2024/04/06 02:45:07;;;;;;;0.70;0.60;;;18.80;1.00;;;;;;2613524;54;20151;-63
2024/04/06 02:47:33;;;;;;;0.70;0.50;;;18.80;1.00;;;;;;2613030;39;20269;-63
2024/04/06 02:49:59;;;;;;;0.60;0.50;;;18.80;1.00;;;;;;2612907;47;20519;-62
2024/04/06 02:52:24;;;;;;;0.60;0.40;;;18.80;1.00;;;;;;2612766;54;20163;-62
2024/04/06 02:54:50;;;;;;;0.70;0.50;;;18.80;1.00;;;;;;2612579;46;20190;-62
2024/04/06 02:57:16;;;;;;;0.70;0.50;;;18.80;1.00;;;;;;2613058;54;20177;-72
2024/04/06 02:59:42;;;;;;;0.70;0.50;;;18.80;1.00;;;;;;2612702;54;20155;-72
2024/04/06 03:02:09;;;;;;;0.70;0.50;;;18.80;1.00;;;;;;2612401;54;20415;-73
2024/04/06 03:04:35;;;;;;;0.70;0.50;;;18.80;1.00;;;;;;2612697;47;20435;-73
2024/04/06 03:07:01;;;;;;;0.70;0.60;;;18.80;1.00;;;;;;2612720;54;20428;-72
2024/04/06 03:09:27;;;;;;;0.70;0.50;;;18.80;1.00;;;;;;2613465;54;20415;-73
2024/04/06 03:11:53;;;;;;;0.70;0.50;;;18.80;1.00;;;;;;2613492;47;20439;-72
2024/04/06 03:14:19;;;;;;;0.70;0.60;;;18.80;1.00;;;;;;2613455;54;20167;-72
2024/04/06 03:16:44;;;;;;;0.70;0.50;;;18.80;1.00;;;;;;2613556;39;20661;-72
2024/04/06 03:19:10;;;;;;;0.70;0.50;;;18.80;1.00;;;;;;2613720;54;21655;-72
2024/04/06 03:21:36;;;;;;;0.60;0.50;;;18.80;1.00;;;;;;2613449;54;20162;-74
2024/04/06 03:24:01;;;;;;;0.70;0.60;;;18.80;1.00;;;;;;2613692;54;20173;-73
2024/04/06 03:26:27;;;;;;;0.60;0.53;;;18.80;1.00;;;;;;2613473;39;20576;-63
2024/04/06 03:28:53;;;;;;;0.97;0.97;;;18.80;1.00;;;;;;2612773;47;20159;-63
2024/04/06 03:31:18;;;;;;;0.70;0.60;;;18.80;1.00;;;;;;2612680;54;20170;-63
2024/04/06 03:33:44;;;;;;;0.60;0.50;;;18.80;1.00;;;;;;2612461;47;20175;-64
2024/04/06 03:36:10;;;;;;;0.70;0.50;;;18.80;1.00;;;;;;2612909;54;20989;-58
2024/04/06 03:38:36;;;;;;;0.60;0.50;;;18.80;1.00;;;;;;2612458;54;20165;-59
2024/04/06 03:41:01;;;;;;;0.60;0.40;;;18.80;1.00;;;;;;2612653;54;20190;-59
2024/04/06 03:43:27;;;;;;;0.60;0.50;;;18.80;1.00;;;;;;2612808;54;20277;-59
2024/04/06 03:45:54;;;;;;;0.60;0.50;;;18.80;1.00;;;;;;2612848;47;20205;-59
2024/04/06 03:48:23;;;;;;;0.70;0.50;;;18.80;1.00;;;;;;2613027;54;20241;-59
2024/04/06 03:50:49;;;;;;;0.60;0.50;;;18.80;1.00;;;;;;2612339;54;20460;-58
2024/04/06 03:53:15;;;;;;;0.60;0.50;;;18.80;1.00;;;;;;2612518;54;21009;-60
2024/04/06 03:55:41;;;;;;;0.70;0.50;;;18.80;1.00;;;;;;2612501;54;20175;-58
2024/04/06 03:58:07;;;;;;;0.60;0.50;;;18.80;1.00;;;;;;2612161;54;21407;-60
2024/04/06 04:00:33;;;;;;;0.63;0.50;;;18.80;1.00;;;;;;2611928;54;20424;-59
2024/04/06 04:02:59;;;;;;;0.70;0.60;;;18.80;1.00;;;;;;2612708;54;20915;-58
2024/04/06 04:05:25;;;;;;;0.60;0.50;;;18.80;1.00;;;;;;2612250;54;20254;-66
2024/04/06 04:07:51;;;;;;;0.60;0.50;;;18.80;1.00;;;;;;2612483;54;20186;-66
2024/04/06 04:10:17;;;;;;;0.70;0.50;;;18.80;1.00;;;;;;2612795;51;20195;-67
2024/04/06 04:12:43;;;;;;;0.60;0.50;;;18.80;1.00;;;;;;2612012;47;20511;-66
2024/04/06 04:15:09;;;;;;;0.60;0.50;;;18.80;1.00;;;;;;2612972;54;20250;-66
2024/04/06 04:17:34;;;;;;;0.67;0.50;;;18.80;1.00;;;;;;2612747;54;20199;-65
2024/04/06 04:20:04;;;;;;;0.60;0.40;;;18.80;1.00;;;;;;2612445;54;20265;-66
2024/04/06 04:22:30;;;;;;;0.60;0.50;;;18.80;1.00;;;;;;2612450;47;20159;-66
2024/04/06 04:24:57;;;;;;;0.70;0.50;;;18.80;1.00;;;;;;2613123;39;20812;-65
2024/04/06 04:27:22;;;;;;;0.60;0.40;;;18.80;1.00;;;;;;2613008;47;20426;-66
2024/04/06 04:29:48;;;;;;;0.63;0.50;;;18.80;1.00;;;;;;2612512;54;20412;-65
2024/04/06 04:32:14;;;;;;;0.70;0.50;;;18.80;1.00;;;;;;2613211;39;20564;-67
2024/04/06 04:34:40;;;;;;;0.60;0.40;;;18.70;1.00;;;;;;2612527;54;20155;-66
2024/04/06 04:37:05;;;;;;;0.60;0.50;;;18.80;1.00;;;;;;2612469;54;20234;-62
2024/04/06 04:39:32;;;;;;;0.70;0.40;;;18.80;1.00;;;;;;2613155;54;20151;-63
2024/04/06 04:41:58;;;;;;;0.60;0.50;;;18.80;1.00;;;;;;2612386;47;20250;-63
2024/04/06 04:44:24;;;;;;;0.70;0.50;;;18.80;1.00;;;;;;2612424;54;20451;-63
2024/04/06 04:46:49;;;;;;;0.60;0.43;;;18.80;1.00;;;;;;2612715;39;21125;-62
2024/04/06 04:49:15;;;;;;;0.60;0.50;;;18.80;1.00;;;;;;2612596;54;20171;-63
2024/04/06 04:51:41;;;;;;;0.60;0.47;;;18.80;1.00;;;;;;2612069;47;20450;-61
2024/04/06 04:54:07;;;;;;;0.60;0.50;;;18.70;1.00;;;;;;2612730;47;20493;-63
2024/04/06 04:56:32;;;;;;;0.67;0.50;;;18.70;1.00;;;;;;2612597;47;20182;-62
2024/04/06 04:58:58;;;;;;;0.60;0.40;;;18.70;1.00;;;;;;2612511;39;20577;-63
2024/04/06 05:01:24;;;;;;;0.70;0.50;;;18.80;1.00;;;;;;2612804;39;20582;-62
2024/04/06 05:03:50;;;;;;;0.60;0.50;;;18.70;1.00;;;;;;2612592;54;20319;-63
2024/04/06 05:06:15;;;;;;;0.63;0.50;;;18.80;1.00;;;;;;2613286;39;20582;-62
2024/04/06 05:08:41;;;;;;;0.60;0.40;;;18.70;1.00;;;;;;2612313;54;20166;-62
2024/04/06 05:11:07;;;;;;;0.60;0.50;;;18.70;1.00;;;;;;2612905;54;20213;-62
2024/04/06 05:13:32;;;;;;;0.60;0.40;;;18.70;1.00;;;;;;2612519;54;20877;-61
2024/04/06 05:16:00;;;;;;;0.70;0.57;;;18.80;1.00;;;;;;2612593;54;20203;-58
2024/04/06 05:18:27;;;;;;;0.60;0.40;;;18.70;1.00;;;;;;2612899;39;20244;-59
2024/04/06 05:20:53;;;;;;;0.60;0.50;;;18.70;1.00;;;;;;2612212;54;20426;-59
2024/04/06 05:23:19;;;;;;;0.67;0.50;;;18.70;1.00;;;;;;2612268;54;20431;-60
2024/04/06 05:25:47;;;;;;;0.60;0.50;;;18.70;1.00;;;;;;2612095;54;20427;-59
2024/04/06 05:28:15;;;;;;;0.60;0.50;;;18.80;1.00;;;;;;2612007;54;20429;-59
2024/04/06 05:30:50;;;;;;;0.60;0.50;;;18.70;1.00;;;;;;2612747;54;20503;-60
2024/04/06 05:33:21;;;;;;;0.60;0.40;;;18.70;1.00;;;;;;2612208;54;20419;-58
2024/04/06 05:35:49;;;;;;;0.60;0.50;;;18.80;1.00;;;;;;2612081;54;20434;-59
2024/04/06 05:38:18;;;;;;;0.60;0.40;;;18.70;1.00;;;;;;2612417;54;20411;-60
2024/04/06 05:40:46;;;;;;;0.60;0.50;;;18.80;1.00;;;;;;2612159;54;20953;-58
2024/04/06 05:43:12;;;;;;;0.60;0.40;;;18.80;1.00;;;;;;2612294;47;20436;-59
2024/04/06 05:45:39;;;;;;;0.70;0.50;;;18.80;1.00;;;;;;2612814;54;21058;-59
2024/04/06 05:48:06;;;;;;;0.60;0.40;;;18.80;1.00;;;;;;2612285;54;20415;-59
2024/04/06 05:50:36;;;;;;;0.60;0.50;;;18.80;1.00;;;;;;2611953;39;20792;-59
2024/04/06 05:53:04;;;;;;;0.60;0.40;;;18.70;1.00;;;;;;2611784;54;20474;-60
2024/04/06 05:55:30;;;;;;;0.60;0.43;;;18.80;1.00;;;;;;2611675;54;20411;-62
2024/04/06 05:57:56;;;;;;;0.60;0.50;;;18.80;1.00;;;;;;2610920;54;20408;-63
2024/04/06 06:00:24;;;;;;;0.60;0.47;;;18.80;1.00;;;;;;2612203;54;20507;-63
2024/04/06 06:02:52;;;;;;;0.60;0.40;;;18.80;1.00;;;;;;2611236;48;20455;-61
2024/04/06 06:05:18;;;;;;;0.70;0.50;;;18.80;1.00;;;;;;2612014;54;20821;-62
2024/04/06 06:07:44;;;;;;;0.60;0.50;;;18.80;1.00;;;;;;2611972;54;20415;-63
2024/04/06 06:10:10;;;;;;;0.60;0.50;;;18.80;1.00;;;;;;2612288;54;20451;-62
2024/04/06 06:12:35;;;;;;;0.60;0.50;;;18.80;1.00;;;;;;2612010;47;20701;-62
2024/04/06 06:15:02;;;;;;;0.60;0.40;;;18.80;1.00;;;;;;2611652;54;20159;-62
2024/04/06 06:17:27;;;;;;;0.70;0.50;;;18.80;1.00;;;;;;2612374;47;20257;-63
2024/04/06 06:19:53;;;;;;;0.60;0.50;;;18.80;1.00;;;;;;2612314;47;20397;-62
2024/04/06 06:22:19;;;;;;;0.60;0.40;;;18.80;1.00;;;;;;2612233;39;20736;-62
2024/04/06 06:24:44;;;;;;;0.60;0.50;;;18.80;1.00;;;;;;2612177;54;20166;-63
2024/04/06 06:27:10;;;;;;;0.60;0.50;;;18.80;1.00;;;;;;2612262;54;20190;-62
2024/04/06 06:29:36;;;;;;;0.60;0.50;;;18.80;1.00;;;;;;2612625;54;20668;-64
2024/04/06 06:32:02;;;;;;;0.60;0.40;;;18.80;1.00;;;;;;2612737;54;20174;-62
2024/04/06 06:34:27;;;;;;;0.60;0.43;;;18.80;1.00;;;;;;2613003;47;20159;-62
2024/04/06 06:36:53;;;;;;;0.60;0.50;;;18.80;1.00;;;;;;2613207;50;20161;-63
2024/04/06 06:39:19;;;;;;;0.70;0.50;;;18.80;1.00;;;;;;2613451;47;20158;-63
2024/04/06 06:41:44;;;;;;;0.67;0.50;;;18.80;1.00;;;;;;2613354;54;20192;-63
2024/04/06 06:44:10;;;;;;;0.60;0.40;;;18.80;1.00;;;;;;2613273;54;20250;-63
2024/04/06 06:46:36;;;;;;;0.60;0.50;;;18.90;1.00;;;;;;2613398;47;20283;-62
2024/04/06 06:49:02;;;;;;;0.70;0.50;;;18.90;1.00;;;;;;2613493;54;20179;-61
2024/04/06 06:51:28;;;;;;;0.60;0.40;;;18.90;1.00;;;;;;2613459;54;20203;-62
2024/04/06 06:53:54;;;;;;;0.70;0.53;;;18.90;1.00;;;;;;2613384;54;21115;-61
2024/04/06 06:56:22;;;;;;;0.60;0.50;;;18.80;1.00;;;;;;2614011;54;20426;-72
2024/04/06 06:58:51;;;;;;;0.70;0.50;;;18.80;1.00;;;;;;2613224;47;20175;-73
2024/04/06 07:01:17;;;;;;;0.70;0.50;;;18.80;1.00;;;;;;2613468;54;20427;-73
2024/04/06 07:03:43;;;;;;;0.70;0.50;;;18.80;1.00;;;;;;2613411;47;20950;-73
2024/04/06 07:06:12;;;;;;;0.60;0.50;;;18.80;1.00;;;;;;2613439;47;20423;-73
2024/04/06 07:08:39;;;;;;;0.70;0.50;;;18.80;1.00;;;;;;2614303;39;20666;-73
2024/04/06 07:11:06;;;;;;;0.70;0.50;;;18.80;1.00;;;;;;2614048;54;20438;-73
2024/04/06 07:13:32;;;;;;;0.60;0.50;;;18.80;1.00;;;;;;2614152;54;20407;-72
2024/04/06 07:16:04;;;;;;;0.60;0.40;;;18.80;1.00;;;;;;2614237;39;20863;-56
2024/04/06 07:18:33;;;;;;;0.60;0.50;;;18.80;1.00;;;;;;2613783;39;20825;-57
2024/04/06 07:20:59;;;;;;;0.60;0.50;;;18.80;1.00;;;;;;2613415;54;20486;-57
2024/04/06 07:23:25;;;;;;;0.60;0.50;;;18.80;1.00;;;;;;2613417;39;20799;-59
2024/04/06 07:25:52;;;;;;;0.60;0.40;;;18.80;1.00;;;;;;2613330;54;20419;-59
2024/04/06 07:28:17;;;;;;;0.70;0.50;;;18.80;1.00;;;;;;2613482;54;20518;-57
2024/04/06 07:30:43;;;;;;;0.60;0.40;;;18.80;1.00;;;;;;2613302;46;20953;-58
2024/04/06 07:33:09;;;;;;;0.67;0.50;;;18.80;1.00;;;;;;2613003;47;20198;-58
2024/04/06 07:35:35;;;;;;;2.40;2.20;;;18.80;1.00;;;;;;2613156;54;20553;-59
2024/04/06 07:38:01;;;;;;;0.60;0.40;;;18.80;1.00;;;;;;2612845;54;20444;-58
2024/04/06 07:40:27;;;;;;;0.60;0.50;;;18.80;1.00;;;;;;2613327;39;20607;-57
2024/04/06 07:42:53;;;;;;;0.60;0.50;;;18.80;1.00;;;;;;2613406;47;20431;-59
2024/04/06 07:45:18;;;;;;;0.63;0.50;;;18.90;1.00;;;;;;2612664;47;20163;-65
2024/04/06 07:47:44;;;;;;;0.60;0.40;;;18.90;1.00;;;;;;2612745;54;20695;-66
2024/04/06 07:50:10;;;;;;;0.63;0.43;;;18.80;1.00;;;;;;2613180;54;20154;-65
2024/04/06 07:52:35;;;;;;;0.60;0.40;;;18.90;1.00;;;;;;2613035;39;20600;-65
2024/04/06 07:55:01;;;;;;;0.70;0.40;;;18.90;1.00;;;;;;2612949;54;20202;-65
2024/04/06 07:57:30;;;;;;;0.60;0.50;;;18.90;1.00;;;;;;2612199;54;20693;-66
2024/04/06 07:59:56;;;;;;;0.60;0.50;;;18.80;1.00;;;;;;2612433;54;20191;-65
2024/04/06 08:02:24;;;;;;;0.60;0.50;;;18.90;1.00;;;;;;2612145;54;20487;-67
2024/04/06 08:04:55;;;;;;;0.60;0.50;;;18.90;1.00;;;;;;2612642;54;20436;-65
2024/04/06 08:07:24;;;;;;;0.60;0.40;;;18.90;1.00;;;;;;2612647;54;20411;-65
2024/04/06 08:09:55;;;;;;;0.60;0.40;;;18.90;1.00;;;;;;2613616;39;20782;-66
2024/04/06 08:12:21;;;;;;;0.60;0.50;;;18.90;1.00;;;;;;2613014;54;20404;-65
2024/04/06 08:14:47;;;;;;;0.60;0.40;;;18.90;1.00;;;;;;2612848;54;20471;-65
2024/04/06 08:17:12;;;;;;;0.60;0.50;;;18.90;1.00;;;;;;2612487;54;20250;-59
2024/04/06 08:19:38;;;;;;;0.70;0.50;;;18.90;1.00;;;;;;2612679;39;20568;-60
2024/04/06 08:22:04;;;;;;;0.60;0.40;;;18.90;1.00;;;;;;2612988;54;20158;-60
2024/04/06 08:24:29;;;;;;;0.60;0.40;;;18.90;1.00;;;;;;2612809;46;20663;-60
2024/04/06 08:26:55;;;;;;;0.60;0.40;;;18.90;1.00;;;;;;2612732;39;20599;-66
2024/04/06 08:29:21;;;;;;;0.60;0.43;;;18.90;1.00;;;;;;2612483;54;20167;-65
2024/04/06 08:31:47;;;;;;;0.60;0.40;;;18.90;1.00;;;;;;2612574;54;20455;-66
2024/04/06 08:34:13;;;;;;;0.60;0.40;;;18.90;1.00;;;;;;2612969;54;20242;-67
2024/04/06 08:36:38;;;;;;;0.60;0.40;;;18.90;1.00;;;;;;2612751;54;20166;-60
2024/04/06 08:39:04;;;;;;;0.60;0.40;;;18.90;1.00;;;;;;2612643;54;20949;-57
2024/04/06 08:41:30;;;;;;;0.70;0.50;;;18.90;1.00;;;;;;2612750;39;20572;-57
2024/04/06 08:43:58;;;;;;;0.70;0.50;;;18.90;1.00;;;;;;2612787;54;20167;-59
2024/04/06 08:46:24;;;;;;;0.60;0.50;;;18.90;1.00;;;;;;2613222;39;20484;-58
2024/04/06 08:48:50;;;;;;;0.60;0.50;;;18.90;1.00;;;;;;2612522;54;20436;-58
2024/04/06 08:51:27;;;;;;;0.70;0.50;;;18.90;1.00;;;;;;2612184;54;20257;-59
2024/04/06 08:53:53;;;;;;;0.70;0.50;;;19.00;1.00;;;;;;2612719;46;20495;-58
2024/04/06 08:56:19;;;;;;;0.60;0.40;;;18.90;1.00;;;;;;2612514;47;20415;-62
2024/04/06 08:58:46;;;;;;;0.60;0.47;;;19.00;1.00;;;;;;2611582;54;21341;-62
2024/04/06 09:01:12;;;;;;;0.60;0.40;;;19.00;1.00;;;;;;2612265;54;20251;-62
2024/04/06 09:03:38;;;;;;;0.60;0.40;;;19.00;1.00;;;;;;2611785;54;20400;-62
2024/04/06 09:06:04;;;;;;;0.60;0.47;;;18.90;1.00;;;;;;2612731;47;20195;-62
2024/04/06 09:08:29;;;;;;;0.60;0.40;;;19.00;1.00;;;;;;2612447;47;20166;-62
2024/04/06 09:10:59;;;;;;;0.60;0.40;;;19.00;1.00;;;;;;2612570;54;20171;-63
2024/04/06 09:13:25;;;;;;;0.70;0.50;;;18.90;1.00;;;;;;2613180;39;20569;-62
2024/04/06 09:15:51;;;;;;;0.70;0.50;;;19.00;1.00;;;;;;2612451;47;20426;-62
2024/04/06 09:18:17;;;;;;;0.70;0.50;;;19.00;1.00;;;;;;2612128;51;20273;-63
2024/04/06 09:20:51;;;;;;;0.60;0.40;;;19.00;1.00;;;;;;2612503;47;20167;-62
2024/04/06 09:23:17;;;;;;;0.60;0.50;;;19.00;1.00;;;;;;2612050;54;20421;-61
2024/04/06 09:25:43;;;;;;;0.70;0.50;;;19.00;1.00;;;;;;2612626;47;21297;-59
2024/04/06 09:28:11;;;;;;;0.60;0.40;;;19.00;1.00;;;;;;2612703;54;20483;-59
2024/04/06 09:30:47;;;;;;;0.70;0.50;;;19.00;1.00;;;;;;2612968;39;20765;-57
2024/04/06 09:33:16;;;;;;;0.60;0.40;;;19.00;1.00;;;;;;2612232;47;20471;-59
2024/04/06 09:35:42;;;;;;;0.60;0.50;;;19.00;1.00;;;;;;2612084;54;20399;-59
2024/04/06 09:38:14;;;;;;;0.70;0.50;;;19.00;1.00;;;;;;2611950;54;20439;-58
2024/04/06 09:40:48;;;;;;;0.60;0.50;;;19.00;1.00;;;;;;2612375;54;20162;-59
2024/04/06 09:43:14;;;;;;;0.70;0.50;;;19.00;1.00;;;;;;2612703;47;20414;-59
2024/04/06 09:45:41;;;;;;;0.63;0.50;;;19.00;1.00;;;;;;2612004;54;20422;-60
2024/04/06 09:48:09;;;;;;;0.60;0.40;;;19.00;1.00;;;;;;2611683;54;20431;-60
2024/04/06 09:50:38;;;;;;;0.60;0.40;;;19.00;1.00;;;;;;2612443;54;20411;-60
2024/04/06 09:53:07;;;;;;;0.70;0.40;;;19.10;1.00;;;;;;2612274;54;20458;-61
2024/04/06 09:55:41;;;;;;;0.60;0.40;;;19.10;1.00;;;;;;2612547;54;20452;-60
2024/04/06 09:58:10;;;;;;;0.67;0.47;;;19.00;1.00;;;;;;2611786;54;20399;-60
2024/04/06 10:00:35;;;;;;;0.70;0.50;;;19.10;1.00;;;;;;2611905;54;20440;-61
2024/04/06 10:03:03;;;;;;;0.67;0.43;;;19.00;1.00;;;;;;2611972;47;20427;-60
2024/04/06 10:05:43;;;;;;;1.73;1.33;;;19.00;1.00;;;;;;2613107;54;20583;-63
2024/04/06 10:08:11;;;;;;;0.63;0.50;;;19.10;1.00;;;;;;2612951;39;20702;-62
2024/04/06 10:10:50;;;;;;;0.70;0.50;;;19.10;1.00;;;;;;2612932;39;20776;-63
2024/04/06 10:13:23;;;;;;;0.60;0.50;;;19.00;1.00;;;;;;2613256;54;21232;-62
2024/04/06 10:15:51;;;;;;;0.70;0.50;;;19.00;1.00;;;;;;2613068;54;20418;-62
2024/04/06 10:18:16;;;;;;;0.70;0.50;;;19.00;1.00;;;;;;2612694;54;20419;-63
2024/04/06 10:20:43;;;;;;;0.67;0.50;;;19.00;1.00;;;;;;2612896;54;21045;-63
2024/04/06 10:23:13;;;;;;;0.63;0.50;;;19.10;1.00;;;;;;2612858;54;20184;-64
2024/04/06 10:25:39;;;;;;;0.60;0.50;;;19.10;1.00;;;;;;2612925;54;20502;-65
2024/04/06 10:28:10;;;;;;;0.70;0.50;;;19.10;1.00;;;;;;2613215;54;20464;-62
2024/04/06 10:30:40;;;;;;;0.60;0.50;;;19.00;1.00;;;;;;2613187;47;20415;-62
2024/04/06 10:33:06;;;;;;;2.00;1.90;;;19.10;1.00;;;;;;2612618;54;20423;-63
2024/04/06 10:35:32;;;;;;;0.70;0.50;;;19.10;1.00;;;;;;2612942;54;20495;-66
2024/04/06 10:37:58;;;;;;;0.60;0.50;;;19.10;1.00;;;;;;2613289;39;20821;-65
2024/04/06 10:40:28;;;;;;;0.70;0.50;;;19.10;1.00;;;;;;2613443;54;21237;-65
2024/04/06 10:42:54;;;;;;;0.60;0.40;;;19.10;1.00;;;;;;2612976;54;20170;-65
2024/04/06 10:45:21;;;;;;;0.60;0.40;;;19.10;1.00;;;;;;2612949;54;20949;-66
2024/04/06 10:47:47;;;;;;;0.60;0.40;;;19.10;1.00;;;;;;2612802;54;20418;-66
2024/04/06 10:50:12;;;;;;;0.70;0.43;;;19.10;1.00;;;;;;2612779;54;20670;-66
2024/04/06 10:52:42;;;;;;;0.60;0.40;;;19.10;1.00;;;;;;2613183;54;20162;-66
2024/04/06 10:55:10;;;;;;;0.70;0.50;;;19.10;1.00;;;;;;2613223;54;20166;-63
2024/04/06 10:57:39;;;;;;;0.60;0.40;;;19.10;1.00;;;;;;2612331;54;20419;-64
2024/04/06 11:00:12;;;;;;;0.60;0.40;;;19.10;1.00;;;;;;2611917;47;20420;-63
2024/04/06 11:02:39;;;;;;;0.70;0.50;;;19.10;1.00;;;;;;2611789;47;20886;-63
2024/04/06 11:05:08;;;;;;;0.60;0.40;;;19.10;1.00;;;;;;2613179;54;20423;-62
2024/04/06 11:07:37;;;;;;;0.60;0.40;;;19.10;1.00;;;;;;2612907;54;20418;-62
2024/04/06 11:10:04;;;;;;;0.60;0.43;;;19.10;1.00;;;;;;2612640;54;20447;-62
2024/04/06 11:12:30;;;;;;;0.70;0.50;;;19.10;1.00;;;;;;2612377;54;20476;-62
2024/04/06 11:15:00;;;;;;;0.70;0.50;;;19.10;1.00;;;;;;2612408;54;20465;-62
2024/04/06 11:17:29;;;;;;;0.70;0.50;;;19.10;1.00;;;;;;2612922;39;21128;-62
2024/04/06 11:19:56;;;;;;;0.60;0.40;;;19.10;1.00;;;;;;2612796;54;20435;-61
2024/04/06 11:22:22;;;;;;;0.60;0.50;;;19.10;1.00;;;;;;2612972;47;20427;-62
2024/04/06 11:24:48;;;;;;;0.60;0.40;;;19.10;1.00;;;;;;2613139;54;20438;-62
2024/04/06 11:27:22;;;;;;;0.70;0.50;;;19.20;1.00;;;;;;2612770;47;20422;-62
2024/04/06 11:29:49;;;;;;;0.60;0.40;;;19.20;1.00;;;;;;2612062;47;20463;-62
2024/04/06 11:32:21;;;;;;;0.70;0.50;;;19.20;1.00;;;;;;2612568;54;20435;-62
2024/04/06 11:34:48;;;;;;;0.60;0.43;;;19.20;1.00;;;;;;2613391;39;20952;-63
2024/04/06 11:37:19;;;;;;;0.60;0.40;;;19.20;1.00;;;;;;2612525;54;20419;-62
2024/04/06 11:39:45;;;;;;;0.67;0.50;;;19.20;1.00;;;;;;2613004;54;20415;-62
2024/04/06 11:42:11;;;;;;;0.60;0.40;;;19.20;1.00;;;;;;2612422;54;20412;-63
2024/04/06 11:44:37;;;;;;;0.63;0.50;;;19.20;1.00;;;;;;2612915;47;20415;-62
2024/04/06 11:47:03;;;;;;;0.63;0.47;;;19.20;1.00;;;;;;2612823;54;20171;-59
2024/04/06 11:49:29;;;;;;;0.60;0.40;;;19.20;1.00;;;;;;2613461;54;20166;-59
2024/04/06 11:51:55;;;;;;;0.60;0.40;;;19.20;1.00;;;;;;2613600;54;20420;-59
2024/04/06 11:54:21;;;;;;;0.70;0.40;;;19.20;1.00;;;;;;2613594;39;20833;-59
2024/04/06 11:56:47;;;;;;;0.67;0.50;;;19.20;1.00;;;;;;2612673;47;20177;-59
2024/04/06 11:59:15;;;;;;;0.70;0.50;;;19.20;1.00;;;;;;2612730;54;20426;-59
2024/04/06 12:01:41;;;;;;;0.63;0.43;;;19.20;1.00;;;;;;2611416;47;20426;-60
2024/04/06 12:04:07;;;;;;;0.70;0.50;;;19.20;1.00;;;;;;2612988;47;20949;-59
2024/04/06 12:06:33;;;;;;;0.70;0.50;;;19.20;1.00;;;;;;2613141;47;20224;-72
2024/04/06 12:08:59;;;;;;;0.60;0.50;;;19.20;1.00;;;;;;2613576;47;20428;-73
2024/04/06 12:11:26;;;;;;;0.60;0.40;;;19.20;1.00;;;;;;2613582;47;20174;-73
2024/04/06 12:13:52;;;;;;;0.60;0.50;;;19.20;1.00;;;;;;2613937;54;20416;-73
2024/04/06 12:16:18;;;;;;;0.60;0.50;;;19.20;1.00;;;;;;2613903;54;20969;-73
2024/04/06 12:18:43;;;;;;;0.70;0.50;;;19.20;1.00;;;;;;2613672;54;20511;-74
2024/04/06 12:21:10;;;;;;;0.60;0.50;;;19.20;1.00;;;;;;2613584;54;20214;-74
2024/04/06 12:23:36;;;;;;;0.70;0.50;;;19.20;1.00;;;;;;2613344;47;20151;-72
2024/04/06 12:26:02;;;;;;;0.60;0.47;;;19.20;1.00;;;;;;2613684;54;20423;-63
2024/04/06 12:28:27;;;;;;;0.70;0.50;;;19.20;1.00;;;;;;2613278;54;20154;-62
2024/04/06 12:30:53;;;;;;;0.60;0.40;;;19.20;1.00;;;;;;2612908;54;20163;-63
2024/04/06 12:33:19;;;;;;;0.60;0.50;;;19.20;1.00;;;;;;2612864;54;20197;-63
2024/04/06 12:35:48;;;;;;;0.63;0.43;;;19.20;1.00;;;;;;2612773;54;20163;-63
2024/04/06 12:38:14;;;;;;;0.70;0.50;;;19.30;1.00;;;;;;2613053;39;20237;-63
2024/04/06 12:40:42;;;;;;;0.67;0.50;;;19.30;1.00;;;;;;2613566;39;20759;-63
2024/04/06 12:43:07;;;;;;;0.70;0.50;;;19.20;1.00;;;;;;2612773;54;20427;-62
2024/04/06 12:45:33;;;;;;;0.70;0.50;;;19.20;1.00;;;;;;2612846;47;20436;-64
2024/04/06 12:47:59;;;;;;;0.70;0.50;;;19.30;1.00;;;;;;2613187;46;20174;-63
2024/04/06 12:50:25;;;;;;;0.70;0.50;;;19.30;1.00;;;;;;2613193;54;20302;-62
2024/04/06 12:52:53;;;;;;;0.70;0.50;;;19.30;1.00;;;;;;2612998;47;20434;-63
2024/04/06 12:55:19;;;;;;;0.70;0.50;;;19.30;1.00;;;;;;2612721;54;20163;-63